SBSP Airport Information

Runway Information
Runway 17R Length 6365 ft width 148 ft
Elevation 2615 ft Threshold ft Heading 147
Runway 35L Length 6365 ft Width 148 ft
Elevation 2633 ft Threshold ft Heading 327
Runway 17L Length 4905 ft width 148 ft
Elevation 2589 ft Threshold ft Heading 147
Runway 35R Length 4905 ft Width 148 ft
Elevation 2629 ft Threshold ft Heading 327
Airport Frequencies
Type APP Name SAO PAULO Frequency 119.8 MHZ
Type ATIS Name ATIS Frequency 127.65 MHZ
Type CLD Name CLNC DEL Frequency 120.6 MHZ
Type GND Name GND Frequency 121.9 MHZ
Type TWR Name SAO PAULO Frequency 127.15 MHZ
Airport Navaids
Type VOR-DME Name Congonhas Frequency 116900 KHZ
Type NDB Name Diadema Frequency 200 KHZ
Type NDB Name Mada Frequency 290 KHZ
Type NDB Name Metro Frequency 330 KHZ
Type NDB Name Sao Paulo Frequency 250 KHZ
Airport Weather Information & NOTAM
ADDS - METARS form results

(0735 UTC 09 August 2022)
Data provider http://aviationweather.gov/metar/data/
 
METAR text: SBSP 090725Z AUTO 11004KT 9999 // SCT005/// BKN007/// OVC022/// 15/14 Q1021
Conditions at: SBSP (SAO PAULO/CONGON, BR) observed 0725 UTC 09 August 2022
Temperature: 15.0°C (59°F)
Dewpoint: 14.0°C (57°F) [RH = 94%]
Pressure (altimeter): 30.15 inches Hg (1021.0 mb)
Winds: from the ESE (110 degrees) at 5 MPH (4 knots; 2.1 m/s)
Visibility: 6 or more miles (10+ km)
Ceiling: 700 feet AGL
Clouds: scattered clouds at 500 feet AGL
broken clouds at 700 feet AGL
overcast cloud deck at 2200 feet AGL
Weather: no significant weather observed at this time

METAR text: SBSP 090710Z AUTO 13004KT 9999 // BKN005/// OVC009/// 15/14 Q1021
Conditions at: SBSP (SAO PAULO/CONGON, BR) observed 0710 UTC 09 August 2022
Temperature: 15.0°C (59°F)
Dewpoint: 14.0°C (57°F) [RH = 94%]
Pressure (altimeter): 30.15 inches Hg (1021.0 mb)
Winds: from the SE (130 degrees) at 5 MPH (4 knots; 2.1 m/s)
Visibility: 6 or more miles (10+ km)
Ceiling: 500 feet AGL
Clouds: broken clouds at 500 feet AGL
overcast cloud deck at 900 feet AGL
Weather: no significant weather observed at this time

METAR text: SBSP 090709Z AUTO 13004KT 9999 // BKN005/// OVC010/// 15/14 Q1021
Conditions at: SBSP (SAO PAULO/CONGON, BR) observed 0709 UTC 09 August 2022
Temperature: 15.0°C (59°F)
Dewpoint: 14.0°C (57°F) [RH = 94%]
Pressure (altimeter): 30.15 inches Hg (1021.0 mb)
Winds: from the SE (130 degrees) at 5 MPH (4 knots; 2.1 m/s)
Visibility: 6 or more miles (10+ km)
Ceiling: 500 feet AGL
Clouds: broken clouds at 500 feet AGL
overcast cloud deck at 1000 feet AGL
Weather: no significant weather observed at this time

METAR text: SBSP 090700Z AUTO 13004KT 9999 // SCT004/// OVC006/// 15/14 Q1021
Conditions at: SBSP (SAO PAULO/CONGON, BR) observed 0700 UTC 09 August 2022
Temperature: 15.0°C (59°F)
Dewpoint: 14.0°C (57°F) [RH = 94%]
Pressure (altimeter): 30.15 inches Hg (1021.0 mb)
Winds: from the SE (130 degrees) at 5 MPH (4 knots; 2.1 m/s)
Visibility: 6 or more miles (10+ km)
Ceiling: 600 feet AGL
Clouds: scattered clouds at 400 feet AGL
overcast cloud deck at 600 feet AGL
Weather: no significant weather observed at this time

Forecast for: SBSP (SAO PAULO/CONGON, BR)
Text: TAF SBSP 090200Z 0906/0918 14005KT 8000 BKN008 TN15/0909Z TX18/0915Z
Forecast period: 0600 to 1200 UTC 09 August 2022
Forecast type: FROM: standard forecast or significant change
Winds: from the SE (140 degrees) at 6 MPH (5 knots; 2.6 m/s)
Visibility: 5 miles (8 km)
Ceiling: 800 feet AGL
Clouds: broken clouds at 800 feet AGL
Weather: no significant weather forecast for this period
Text: PROB30 0907/0912 10005KT 4000 DZ BR BKN004
Forecast period: 0700 to 1200 UTC 09 August 2022
Forecast type: PROBABLE: 30 percent likelihood of the following during this time
Winds: from the E (100 degrees) at 6 MPH (5 knots; 2.6 m/s)
Visibility: 2.49 miles (4.01 km)
Ceiling: 400 feet AGL
Clouds: broken clouds at 400 feet AGL
Weather: DZ BR  (moderate drizzle, mist)
Text: BECMG 0912/0914 35010KT BKN025
Forecast period: 1200 to 1800 UTC 09 August 2022
Forecast type: BECOMING: Conditions expected to become as follows by 1400 UTC 09 August 2022
Winds: from the N (350 degrees) at 12 MPH (10 knots; 5.1 m/s)
Visibility: 5 miles (8 km)
Ceiling: 2500 feet AGL
Clouds: broken clouds at 2500 feet AGL
Weather: no significant weather forecast for this period
Text: TEMPO 0914/0918 6000 SHRA BKN020 FEW040TCU RMK PGN
Forecast period: 1400 to 1800 UTC 09 August 2022
Forecast type: TEMPORARY: The following changes expected for less than half the time period
Visibility: 4 miles (6 km)
Ceiling: 2000 feet AGL
Clouds: broken clouds at 2000 feet AGL
few clouds at 4000 feet AGL
Weather: SHRA  (rain showers)